Sandringham, United Kingdom
Current Conditions -  °F | °C
As of 3:50 PM on Saturday 22 Nov 2014 (Local Time) from EGYM Reporting Station
Haze Haze  
Wind Chill: 13°   Ceiling: 10000
Heat Index: 13°   Visibility: 4mi
Dew Point: 12°   Wind: 8mph
Humidity: 94%   Direction: 170°S
Pressure: 29.91"   Gusts: NA
Location:  52.82°N, 0.5°E
Report Text: EGYM 221550Z AUTO 17007KT 7000 BR SCT034/// SCT050/// BKN100/// 13/12 Q1013 RERA
Loading
Personal Weather Stations






























Interactive Weather Map New forecast layout! Learn more

10-Day Weather Forecast

Advertisements
Track Severe Weather on mobile